sensor_id;sensor_type;location;lat;lon;timestamp;temperature;humidity
41471;DHT22;27211;51.220;5.308;2022-10-16T00:01:14;14.60;99.90
41471;DHT22;27211;51.220;5.308;2022-10-16T00:03:41;14.50;99.90
41471;DHT22;27211;51.220;5.308;2022-10-16T00:06:08;14.50;99.90
41471;DHT22;27211;51.220;5.308;2022-10-16T00:08:35;14.60;99.90
41471;DHT22;27211;51.220;5.308;2022-10-16T00:11:07;14.70;99.90
41471;DHT22;27211;51.220;5.308;2022-10-16T00:13:34;14.80;99.90
41471;DHT22;27211;51.220;5.308;2022-10-16T00:16:01;14.70;99.90
41471;DHT22;27211;51.220;5.308;2022-10-16T00:18:28;14.80;99.90
41471;DHT22;27211;51.220;5.308;2022-10-16T00:21:01;14.80;99.90
41471;DHT22;27211;51.220;5.308;2022-10-16T00:23:30;14.50;99.90
41471;DHT22;27211;51.220;5.308;2022-10-16T00:25:57;14.70;99.90
41471;DHT22;27211;51.220;5.308;2022-10-16T00:28:24;14.90;99.90
41471;DHT22;27211;51.220;5.308;2022-10-16T00:30:50;14.80;99.90
41471;DHT22;27211;51.220;5.308;2022-10-16T00:33:16;14.80;99.90
41471;DHT22;27211;51.220;5.308;2022-10-16T00:35:42;14.60;99.90
41471;DHT22;27211;51.220;5.308;2022-10-16T00:38:09;14.70;99.90
41471;DHT22;27211;51.220;5.308;2022-10-16T00:40:35;14.90;99.90
41471;DHT22;27211;51.220;5.308;2022-10-16T00:43:00;14.90;99.90
41471;DHT22;27211;51.220;5.308;2022-10-16T00:45:26;14.90;99.90
41471;DHT22;27211;51.220;5.308;2022-10-16T00:47:54;14.90;99.90
41471;DHT22;27211;51.220;5.308;2022-10-16T00:50:30;14.80;99.90
41471;DHT22;27211;51.220;5.308;2022-10-16T00:52:58;14.80;99.90
41471;DHT22;27211;51.220;5.308;2022-10-16T00:55:28;14.70;99.90
41471;DHT22;27211;51.220;5.308;2022-10-16T00:57:56;14.70;99.90
41471;DHT22;27211;51.220;5.308;2022-10-16T01:00:26;14.50;99.90
41471;DHT22;27211;51.220;5.308;2022-10-16T01:03:00;14.60;99.90
41471;DHT22;27211;51.220;5.308;2022-10-16T01:05:42;14.70;99.90
41471;DHT22;27211;51.220;5.308;2022-10-16T01:08:17;14.40;99.90
41471;DHT22;27211;51.220;5.308;2022-10-16T01:10:54;14.30;99.90
41471;DHT22;27211;51.220;5.308;2022-10-16T01:13:36;14.40;99.90
41471;DHT22;27211;51.220;5.308;2022-10-16T01:18:50;14.40;99.90
41471;DHT22;27211;51.220;5.308;2022-10-16T01:21:22;14.40;99.90
41471;DHT22;27211;51.220;5.308;2022-10-16T01:29:15;14.20;99.90
41471;DHT22;27211;51.220;5.308;2022-10-16T01:31:49;14.30;99.90
41471;DHT22;27211;51.220;5.308;2022-10-16T01:34:23;14.30;99.90
41471;DHT22;27211;51.220;5.308;2022-10-16T01:36:56;14.30;99.90
41471;DHT22;27211;51.220;5.308;2022-10-16T01:39:29;14.20;99.90
41471;DHT22;27211;51.220;5.308;2022-10-16T01:42:21;14.10;99.90
41471;DHT22;27211;51.220;5.308;2022-10-16T01:44:51;14.10;99.90
41471;DHT22;27211;51.220;5.308;2022-10-16T01:47:19;14.10;99.90
41471;DHT22;27211;51.220;5.308;2022-10-16T01:49:47;14.20;99.90
41471;DHT22;27211;51.220;5.308;2022-10-16T01:52:20;14.20;99.90
41471;DHT22;27211;51.220;5.308;2022-10-16T01:54:53;14.10;99.90
41471;DHT22;27211;51.220;5.308;2022-10-16T01:57:20;14.10;99.90
41471;DHT22;27211;51.220;5.308;2022-10-16T01:59:50;14.10;99.90
41471;DHT22;27211;51.220;5.308;2022-10-16T02:02:18;14.20;99.90
41471;DHT22;27211;51.220;5.308;2022-10-16T02:04:46;14.10;99.90
41471;DHT22;27211;51.220;5.308;2022-10-16T02:07:13;14.00;99.90
41471;DHT22;27211;51.220;5.308;2022-10-16T02:09:45;14.10;99.90
41471;DHT22;27211;51.220;5.308;2022-10-16T02:12:16;14.10;99.90
41471;DHT22;27211;51.220;5.308;2022-10-16T02:14:44;14.10;99.90
41471;DHT22;27211;51.220;5.308;2022-10-16T02:17:16;14.20;99.90
41471;DHT22;27211;51.220;5.308;2022-10-16T02:19:45;14.20;99.90
41471;DHT22;27211;51.220;5.308;2022-10-16T02:22:28;14.20;99.90
41471;DHT22;27211;51.220;5.308;2022-10-16T02:25:06;14.00;99.90
41471;DHT22;27211;51.220;5.308;2022-10-16T02:30:29;14.20;99.90
41471;DHT22;27211;51.220;5.308;2022-10-16T02:32:59;14.00;99.90
41471;DHT22;27211;51.220;5.308;2022-10-16T02:35:26;14.10;99.90
41471;DHT22;27211;51.220;5.308;2022-10-16T02:37:53;14.00;99.90
41471;DHT22;27211;51.220;5.308;2022-10-16T02:40:20;13.90;99.90
41471;DHT22;27211;51.220;5.308;2022-10-16T02:42:50;13.90;99.90
41471;DHT22;27211;51.220;5.308;2022-10-16T02:45:17;13.80;99.90
41471;DHT22;27211;51.220;5.308;2022-10-16T02:47:45;13.90;99.90
41471;DHT22;27211;51.220;5.308;2022-10-16T02:50:11;13.90;99.90
41471;DHT22;27211;51.220;5.308;2022-10-16T02:52:37;14.00;99.90
41471;DHT22;27211;51.220;5.308;2022-10-16T02:55:06;13.90;99.90
41471;DHT22;27211;51.220;5.308;2022-10-16T02:57:33;13.90;99.90
41471;DHT22;27211;51.220;5.308;2022-10-16T03:00:03;14.00;99.90
41471;DHT22;27211;51.220;5.308;2022-10-16T03:02:30;13.90;99.90
41471;DHT22;27211;51.220;5.308;2022-10-16T03:04:55;13.90;99.90
41471;DHT22;27211;51.220;5.308;2022-10-16T03:07:21;13.80;99.90
41471;DHT22;27211;51.220;5.308;2022-10-16T03:09:47;13.90;99.90
41471;DHT22;27211;51.220;5.308;2022-10-16T03:12:16;13.90;99.90
41471;DHT22;27211;51.220;5.308;2022-10-16T03:14:41;13.80;99.90
41471;DHT22;27211;51.220;5.308;2022-10-16T03:17:10;13.80;99.90
41471;DHT22;27211;51.220;5.308;2022-10-16T03:19:36;13.80;99.90
41471;DHT22;27211;51.220;5.308;2022-10-16T03:22:02;13.70;99.90
41471;DHT22;27211;51.220;5.308;2022-10-16T03:24:28;13.70;99.90
41471;DHT22;27211;51.220;5.308;2022-10-16T03:26:54;13.80;99.90
41471;DHT22;27211;51.220;5.308;2022-10-16T03:29:20;13.80;99.90
41471;DHT22;27211;51.220;5.308;2022-10-16T03:31:45;13.70;99.90
41471;DHT22;27211;51.220;5.308;2022-10-16T03:34:11;13.80;99.90
41471;DHT22;27211;51.220;5.308;2022-10-16T03:36:37;13.80;99.90
41471;DHT22;27211;51.220;5.308;2022-10-16T03:39:03;13.90;99.90
41471;DHT22;27211;51.220;5.308;2022-10-16T03:41:29;13.90;99.90
41471;DHT22;27211;51.220;5.308;2022-10-16T03:43:54;13.80;99.90
41471;DHT22;27211;51.220;5.308;2022-10-16T03:46:21;13.90;99.90
41471;DHT22;27211;51.220;5.308;2022-10-16T03:48:46;14.00;99.90
41471;DHT22;27211;51.220;5.308;2022-10-16T03:51:12;13.80;99.90
41471;DHT22;27211;51.220;5.308;2022-10-16T03:53:41;13.80;99.90
41471;DHT22;27211;51.220;5.308;2022-10-16T03:56:06;13.90;99.90
41471;DHT22;27211;51.220;5.308;2022-10-16T03:58:32;14.00;99.90
41471;DHT22;27211;51.220;5.308;2022-10-16T04:00:58;13.90;99.90
41471;DHT22;27211;51.220;5.308;2022-10-16T04:03:24;13.80;99.90
41471;DHT22;27211;51.220;5.308;2022-10-16T04:05:50;13.80;99.90
41471;DHT22;27211;51.220;5.308;2022-10-16T04:08:16;13.80;99.90
41471;DHT22;27211;51.220;5.308;2022-10-16T04:10:43;13.80;99.90
41471;DHT22;27211;51.220;5.308;2022-10-16T04:13:12;13.80;99.90
41471;DHT22;27211;51.220;5.308;2022-10-16T04:15:38;13.90;99.90
41471;DHT22;27211;51.220;5.308;2022-10-16T04:18:05;13.80;99.90
41471;DHT22;27211;51.220;5.308;2022-10-16T04:20:31;13.90;99.90
41471;DHT22;27211;51.220;5.308;2022-10-16T04:22:57;14.00;99.90
41471;DHT22;27211;51.220;5.308;2022-10-16T04:25:23;13.90;99.90
41471;DHT22;27211;51.220;5.308;2022-10-16T04:27:49;13.90;99.90
41471;DHT22;27211;51.220;5.308;2022-10-16T04:30:19;13.90;99.90
41471;DHT22;27211;51.220;5.308;2022-10-16T04:32:48;13.80;99.90
41471;DHT22;27211;51.220;5.308;2022-10-16T04:35:15;13.90;99.90
41471;DHT22;27211;51.220;5.308;2022-10-16T04:37:44;13.90;99.90
41471;DHT22;27211;51.220;5.308;2022-10-16T04:40:13;13.90;99.90
41471;DHT22;27211;51.220;5.308;2022-10-16T04:42:39;14.00;99.90
41471;DHT22;27211;51.220;5.308;2022-10-16T04:45:06;13.90;99.90
41471;DHT22;27211;51.220;5.308;2022-10-16T04:47:32;13.90;99.90
41471;DHT22;27211;51.220;5.308;2022-10-16T04:50:01;13.80;99.90
41471;DHT22;27211;51.220;5.308;2022-10-16T04:52:28;13.80;99.90
41471;DHT22;27211;51.220;5.308;2022-10-16T04:54:53;13.90;99.90
41471;DHT22;27211;51.220;5.308;2022-10-16T04:57:23;13.90;99.90
41471;DHT22;27211;51.220;5.308;2022-10-16T04:59:50;13.80;99.90
41471;DHT22;27211;51.220;5.308;2022-10-16T05:02:16;13.90;99.90
41471;DHT22;27211;51.220;5.308;2022-10-16T05:04:42;13.80;99.90
41471;DHT22;27211;51.220;5.308;2022-10-16T05:07:07;13.80;99.90
41471;DHT22;27211;51.220;5.308;2022-10-16T05:09:34;13.70;99.90
41471;DHT22;27211;51.220;5.308;2022-10-16T05:11:59;13.70;99.90
41471;DHT22;27211;51.220;5.308;2022-10-16T05:14:25;13.70;99.90
41471;DHT22;27211;51.220;5.308;2022-10-16T05:16:51;13.70;99.90
41471;DHT22;27211;51.220;5.308;2022-10-16T05:19:17;13.70;99.90
41471;DHT22;27211;51.220;5.308;2022-10-16T05:21:43;13.70;99.90
41471;DHT22;27211;51.220;5.308;2022-10-16T05:24:09;13.70;99.90
41471;DHT22;27211;51.220;5.308;2022-10-16T05:26:35;13.60;99.90
41471;DHT22;27211;51.220;5.308;2022-10-16T05:29:00;13.70;99.90
41471;DHT22;27211;51.220;5.308;2022-10-16T05:31:27;13.80;99.90
41471;DHT22;27211;51.220;5.308;2022-10-16T05:33:58;13.70;99.90
41471;DHT22;27211;51.220;5.308;2022-10-16T05:36:27;13.70;99.90
41471;DHT22;27211;51.220;5.308;2022-10-16T05:39:00;13.70;99.90
41471;DHT22;27211;51.220;5.308;2022-10-16T05:41:26;13.60;99.90
41471;DHT22;27211;51.220;5.308;2022-10-16T05:43:53;13.60;99.90
41471;DHT22;27211;51.220;5.308;2022-10-16T05:46:19;13.60;99.90
41471;DHT22;27211;51.220;5.308;2022-10-16T05:48:45;13.70;99.90
41471;DHT22;27211;51.220;5.308;2022-10-16T05:51:14;13.70;99.90
41471;DHT22;27211;51.220;5.308;2022-10-16T05:53:40;13.70;99.90
41471;DHT22;27211;51.220;5.308;2022-10-16T05:56:09;13.60;99.90
41471;DHT22;27211;51.220;5.308;2022-10-16T05:58:36;13.60;99.90
41471;DHT22;27211;51.220;5.308;2022-10-16T06:01:06;13.60;99.90
41471;DHT22;27211;51.220;5.308;2022-10-16T06:03:35;13.50;99.90
41471;DHT22;27211;51.220;5.308;2022-10-16T06:06:12;13.60;99.90
41471;DHT22;27211;51.220;5.308;2022-10-16T06:08:42;13.60;99.90
41471;DHT22;27211;51.220;5.308;2022-10-16T06:11:10;13.60;99.90
41471;DHT22;27211;51.220;5.308;2022-10-16T06:13:41;13.60;99.90
41471;DHT22;27211;51.220;5.308;2022-10-16T06:16:08;13.60;99.90
41471;DHT22;27211;51.220;5.308;2022-10-16T06:18:35;13.60;99.90
41471;DHT22;27211;51.220;5.308;2022-10-16T06:21:07;13.60;99.90
41471;DHT22;27211;51.220;5.308;2022-10-16T06:23:36;13.60;99.90
41471;DHT22;27211;51.220;5.308;2022-10-16T06:26:11;13.50;99.90
41471;DHT22;27211;51.220;5.308;2022-10-16T06:28:37;13.50;99.90
41471;DHT22;27211;51.220;5.308;2022-10-16T06:31:04;13.60;99.90
41471;DHT22;27211;51.220;5.308;2022-10-16T06:33:31;13.70;99.90
41471;DHT22;27211;51.220;5.308;2022-10-16T06:36:27;13.70;99.90
41471;DHT22;27211;51.220;5.308;2022-10-16T06:38:56;13.60;99.90
41471;DHT22;27211;51.220;5.308;2022-10-16T06:41:22;13.60;99.90
41471;DHT22;27211;51.220;5.308;2022-10-16T06:43:48;13.60;99.90
41471;DHT22;27211;51.220;5.308;2022-10-16T06:46:18;13.60;99.90
41471;DHT22;27211;51.220;5.308;2022-10-16T06:48:43;13.70;99.90
41471;DHT22;27211;51.220;5.308;2022-10-16T06:51:31;13.70;99.90
41471;DHT22;27211;51.220;5.308;2022-10-16T06:53:59;14.00;99.90
41471;DHT22;27211;51.220;5.308;2022-10-16T06:56:30;14.60;99.90
41471;DHT22;27211;51.220;5.308;2022-10-16T06:58:56;15.10;99.90
41471;DHT22;27211;51.220;5.308;2022-10-16T07:01:23;15.50;99.90
41471;DHT22;27211;51.220;5.308;2022-10-16T07:03:50;15.70;99.90
41471;DHT22;27211;51.220;5.308;2022-10-16T07:06:18;15.80;99.90
41471;DHT22;27211;51.220;5.308;2022-10-16T07:08:46;15.70;99.90
41471;DHT22;27211;51.220;5.308;2022-10-16T07:11:14;15.60;99.90
41471;DHT22;27211;51.220;5.308;2022-10-16T07:13:44;15.60;99.90
41471;DHT22;27211;51.220;5.308;2022-10-16T07:16:23;15.60;99.90
41471;DHT22;27211;51.220;5.308;2022-10-16T07:18:49;15.30;99.90
41471;DHT22;27211;51.220;5.308;2022-10-16T07:21:19;15.10;99.90
41471;DHT22;27211;51.220;5.308;2022-10-16T07:24:19;15.40;99.90
41471;DHT22;27211;51.220;5.308;2022-10-16T07:26:38;15.60;99.90
41471;DHT22;27211;51.220;5.308;2022-10-16T07:29:06;15.90;99.90
41471;DHT22;27211;51.220;5.308;2022-10-16T07:31:36;16.10;99.90
41471;DHT22;27211;51.220;5.308;2022-10-16T07:34:02;15.80;99.90
41471;DHT22;27211;51.220;5.308;2022-10-16T07:36:28;15.80;99.90
41471;DHT22;27211;51.220;5.308;2022-10-16T07:38:56;15.70;99.90
41471;DHT22;27211;51.220;5.308;2022-10-16T07:41:22;15.60;99.90
41471;DHT22;27211;51.220;5.308;2022-10-16T07:43:50;15.50;99.90
41471;DHT22;27211;51.220;5.308;2022-10-16T07:46:17;15.60;99.90
41471;DHT22;27211;51.220;5.308;2022-10-16T07:48:44;15.60;99.90
41471;DHT22;27211;51.220;5.308;2022-10-16T07:51:16;15.50;99.90
41471;DHT22;27211;51.220;5.308;2022-10-16T07:53:42;15.40;99.90
41471;DHT22;27211;51.220;5.308;2022-10-16T07:56:08;15.40;99.90
41471;DHT22;27211;51.220;5.308;2022-10-16T07:58:35;15.60;99.90
41471;DHT22;27211;51.220;5.308;2022-10-16T08:01:05;15.60;99.90
41471;DHT22;27211;51.220;5.308;2022-10-16T08:03:32;15.70;99.90
41471;DHT22;27211;51.220;5.308;2022-10-16T08:05:59;15.90;99.90
41471;DHT22;27211;51.220;5.308;2022-10-16T08:08:44;16.00;99.90
41471;DHT22;27211;51.220;5.308;2022-10-16T08:11:10;16.00;99.90
41471;DHT22;27211;51.220;5.308;2022-10-16T08:13:36;16.00;99.90
41471;DHT22;27211;51.220;5.308;2022-10-16T08:16:03;16.10;99.90
41471;DHT22;27211;51.220;5.308;2022-10-16T08:18:42;16.30;99.90
41471;DHT22;27211;51.220;5.308;2022-10-16T08:21:16;16.60;99.90
41471;DHT22;27211;51.220;5.308;2022-10-16T08:23:42;17.40;99.90
41471;DHT22;27211;51.220;5.308;2022-10-16T08:26:11;18.10;99.90
41471;DHT22;27211;51.220;5.308;2022-10-16T08:28:38;18.80;99.90
41471;DHT22;27211;51.220;5.308;2022-10-16T08:31:11;19.60;99.90
41471;DHT22;27211;51.220;5.308;2022-10-16T08:33:38;20.00;99.90
41471;DHT22;27211;51.220;5.308;2022-10-16T08:36:06;20.70;99.90
41471;DHT22;27211;51.220;5.308;2022-10-16T08:38:34;21.30;99.90
41471;DHT22;27211;51.220;5.308;2022-10-16T08:49:34;23.50;99.90
41471;DHT22;27211;51.220;5.308;2022-10-16T08:52:00;23.50;99.90
41471;DHT22;27211;51.220;5.308;2022-10-16T08:54:34;23.90;99.90
41471;DHT22;27211;51.220;5.308;2022-10-16T08:57:19;24.20;99.90
41471;DHT22;27211;51.220;5.308;2022-10-16T08:59:45;23.90;99.90
41471;DHT22;27211;51.220;5.308;2022-10-16T09:02:33;23.90;99.90
41471;DHT22;27211;51.220;5.308;2022-10-16T09:05:18;25.10;99.90
41471;DHT22;27211;51.220;5.308;2022-10-16T09:18:37;24.70;99.90
41471;DHT22;27211;51.220;5.308;2022-10-16T09:21:14;25.00;99.90
41471;DHT22;27211;51.220;5.308;2022-10-16T09:23:41;25.60;99.90
41471;DHT22;27211;51.220;5.308;2022-10-16T09:26:13;25.30;99.60
41471;DHT22;27211;51.220;5.308;2022-10-16T09:28:43;24.80;99.90
41471;DHT22;27211;51.220;5.308;2022-10-16T09:31:18;24.70;99.90
41471;DHT22;27211;51.220;5.308;2022-10-16T09:33:48;25.00;99.90
41471;DHT22;27211;51.220;5.308;2022-10-16T09:36:16;25.50;99.90
41471;DHT22;27211;51.220;5.308;2022-10-16T09:38:43;25.50;99.10
41471;DHT22;27211;51.220;5.308;2022-10-16T09:46:28;25.60;99.50
41471;DHT22;27211;51.220;5.308;2022-10-16T09:49:00;26.70;97.20
41471;DHT22;27211;51.220;5.308;2022-10-16T09:51:35;26.40;97.30
41471;DHT22;27211;51.220;5.308;2022-10-16T09:54:12;27.20;96.40
41471;DHT22;27211;51.220;5.308;2022-10-16T09:56:39;27.90;94.80
41471;DHT22;27211;51.220;5.308;2022-10-16T09:59:17;28.20;94.50
41471;DHT22;27211;51.220;5.308;2022-10-16T10:01:52;29.10;93.10
41471;DHT22;27211;51.220;5.308;2022-10-16T10:04:19;29.70;91.40
41471;DHT22;27211;51.220;5.308;2022-10-16T10:06:48;29.80;90.40
41471;DHT22;27211;51.220;5.308;2022-10-16T10:09:27;29.40;88.10
41471;DHT22;27211;51.220;5.308;2022-10-16T10:11:59;29.90;88.00
41471;DHT22;27211;51.220;5.308;2022-10-16T10:14:38;30.10;87.30
41471;DHT22;27211;51.220;5.308;2022-10-16T10:22:55;30.50;81.10
41471;DHT22;27211;51.220;5.308;2022-10-16T10:25:39;31.20;80.80
41471;DHT22;27211;51.220;5.308;2022-10-16T10:31:12;31.40;75.90
41471;DHT22;27211;51.220;5.308;2022-10-16T10:36:39;29.90;80.10
41471;DHT22;27211;51.220;5.308;2022-10-16T10:39:32;29.60;80.40
41471;DHT22;27211;51.220;5.308;2022-10-16T10:48:20;29.30;81.20
41471;DHT22;27211;51.220;5.308;2022-10-16T10:50:54;30.50;79.40
41471;DHT22;27211;51.220;5.308;2022-10-16T10:54:04;31.10;76.70
41471;DHT22;27211;51.220;5.308;2022-10-16T10:59:31;31.10;76.60
41471;DHT22;27211;51.220;5.308;2022-10-16T11:02:15;31.10;75.00
41471;DHT22;27211;51.220;5.308;2022-10-16T11:05:02;32.60;73.90
41471;DHT22;27211;51.220;5.308;2022-10-16T11:07:38;32.70;71.70
41471;DHT22;27211;51.220;5.308;2022-10-16T11:10:46;31.90;71.90
41471;DHT22;27211;51.220;5.308;2022-10-16T11:13:44;29.70;74.50
41471;DHT22;27211;51.220;5.308;2022-10-16T11:16:21;28.70;77.40
41471;DHT22;27211;51.220;5.308;2022-10-16T11:19:21;28.90;77.80
41471;DHT22;27211;51.220;5.308;2022-10-16T11:21:59;28.90;77.70
41471;DHT22;27211;51.220;5.308;2022-10-16T11:24:44;28.40;78.20
41471;DHT22;27211;51.220;5.308;2022-10-16T11:27:34;28.20;78.60
41471;DHT22;27211;51.220;5.308;2022-10-16T11:30:05;27.80;79.80
41471;DHT22;27211;51.220;5.308;2022-10-16T11:32:47;28.20;79.20
41471;DHT22;27211;51.220;5.308;2022-10-16T11:35:19;29.80;75.70
41471;DHT22;27211;51.220;5.308;2022-10-16T11:37:48;31.10;73.40
41471;DHT22;27211;51.220;5.308;2022-10-16T11:40:32;32.30;71.30
41471;DHT22;27211;51.220;5.308;2022-10-16T11:43:31;33.80;68.80
41471;DHT22;27211;51.220;5.308;2022-10-16T11:46:04;34.10;65.80
41471;DHT22;27211;51.220;5.308;2022-10-16T11:48:57;34.10;64.60
41471;DHT22;27211;51.220;5.308;2022-10-16T11:51:42;33.20;65.70
41471;DHT22;27211;51.220;5.308;2022-10-16T11:54:27;31.80;66.70
41471;DHT22;27211;51.220;5.308;2022-10-16T11:56:59;31.10;68.80
41471;DHT22;27211;51.220;5.308;2022-10-16T11:59:38;30.70;69.00
41471;DHT22;27211;51.220;5.308;2022-10-16T12:05:14;29.70;71.40
41471;DHT22;27211;51.220;5.308;2022-10-16T12:10:30;30.30;72.50
41471;DHT22;27211;51.220;5.308;2022-10-16T12:15:47;31.40;68.80
41471;DHT22;27211;51.220;5.308;2022-10-16T12:18:23;31.70;67.40
41471;DHT22;27211;51.220;5.308;2022-10-16T12:20:56;31.10;68.10
41471;DHT22;27211;51.220;5.308;2022-10-16T12:23:26;32.10;68.20
41471;DHT22;27211;51.220;5.308;2022-10-16T12:25:56;31.50;68.40
41471;DHT22;27211;51.220;5.308;2022-10-16T12:28:30;31.90;67.20
41471;DHT22;27211;51.220;5.308;2022-10-16T12:31:05;32.20;66.10
41471;DHT22;27211;51.220;5.308;2022-10-16T12:33:34;32.60;66.10
41471;DHT22;27211;51.220;5.308;2022-10-16T12:36:04;32.10;65.70
41471;DHT22;27211;51.220;5.308;2022-10-16T12:41:06;30.10;70.50
41471;DHT22;27211;51.220;5.308;2022-10-16T12:43:45;29.90;70.90
41471;DHT22;27211;51.220;5.308;2022-10-16T12:48:43;27.80;75.00
41471;DHT22;27211;51.220;5.308;2022-10-16T12:51:35;27.50;75.80
41471;DHT22;27211;51.220;5.308;2022-10-16T12:54:12;27.20;76.30
41471;DHT22;27211;51.220;5.308;2022-10-16T13:02:44;26.10;79.50
41471;DHT22;27211;51.220;5.308;2022-10-16T13:05:21;26.10;79.50
41471;DHT22;27211;51.220;5.308;2022-10-16T13:11:04;25.60;82.60
41471;DHT22;27211;51.220;5.308;2022-10-16T13:22:17;25.10;85.50
41471;DHT22;27211;51.220;5.308;2022-10-16T13:24:55;24.80;88.60
41471;DHT22;27211;51.220;5.308;2022-10-16T13:30:25;23.90;91.00
41471;DHT22;27211;51.220;5.308;2022-10-16T13:35:52;23.20;95.00
41471;DHT22;27211;51.220;5.308;2022-10-16T13:38:21;22.80;97.10
41471;DHT22;27211;51.220;5.308;2022-10-16T13:43:31;22.40;99.90
41471;DHT22;27211;51.220;5.308;2022-10-16T13:46:15;22.40;99.90
41471;DHT22;27211;51.220;5.308;2022-10-16T13:48:44;22.00;99.90
41471;DHT22;27211;51.220;5.308;2022-10-16T13:51:18;22.00;99.90
41471;DHT22;27211;51.220;5.308;2022-10-16T13:53:45;22.10;99.90
41471;DHT22;27211;51.220;5.308;2022-10-16T13:56:16;21.70;99.90
41471;DHT22;27211;51.220;5.308;2022-10-16T13:58:45;22.00;99.90
41471;DHT22;27211;51.220;5.308;2022-10-16T14:01:18;22.10;99.90
41471;DHT22;27211;51.220;5.308;2022-10-16T14:03:46;22.30;99.90
41471;DHT22;27211;51.220;5.308;2022-10-16T14:06:19;22.20;99.90
41471;DHT22;27211;51.220;5.308;2022-10-16T14:09:08;22.00;99.90
41471;DHT22;27211;51.220;5.308;2022-10-16T14:11:42;21.90;99.90
41471;DHT22;27211;51.220;5.308;2022-10-16T14:14:17;21.80;99.90
41471;DHT22;27211;51.220;5.308;2022-10-16T14:16:44;22.00;99.90
41471;DHT22;27211;51.220;5.308;2022-10-16T14:19:26;22.30;99.90
41471;DHT22;27211;51.220;5.308;2022-10-16T14:21:53;22.40;99.90
41471;DHT22;27211;51.220;5.308;2022-10-16T14:24:31;22.30;99.90
41471;DHT22;27211;51.220;5.308;2022-10-16T14:26:58;22.00;99.90
41471;DHT22;27211;51.220;5.308;2022-10-16T14:29:26;21.90;99.90
41471;DHT22;27211;51.220;5.308;2022-10-16T14:32:01;22.00;99.90
41471;DHT22;27211;51.220;5.308;2022-10-16T14:34:30;21.90;99.90
41471;DHT22;27211;51.220;5.308;2022-10-16T14:37:25;22.10;99.90
41471;DHT22;27211;51.220;5.308;2022-10-16T14:39:52;22.10;99.90
41471;DHT22;27211;51.220;5.308;2022-10-16T14:42:20;21.90;99.90
41471;DHT22;27211;51.220;5.308;2022-10-16T14:44:48;22.00;99.90
41471;DHT22;27211;51.220;5.308;2022-10-16T14:47:20;21.90;99.90
41471;DHT22;27211;51.220;5.308;2022-10-16T14:49:49;21.80;99.90
41471;DHT22;27211;51.220;5.308;2022-10-16T14:52:15;21.70;99.90
41471;DHT22;27211;51.220;5.308;2022-10-16T14:54:41;21.70;99.90
41471;DHT22;27211;51.220;5.308;2022-10-16T14:57:27;21.90;99.90
41471;DHT22;27211;51.220;5.308;2022-10-16T14:59:57;21.90;99.90
41471;DHT22;27211;51.220;5.308;2022-10-16T15:02:30;21.60;99.90
41471;DHT22;27211;51.220;5.308;2022-10-16T15:04:57;21.70;99.90
41471;DHT22;27211;51.220;5.308;2022-10-16T15:07:24;21.70;99.90
41471;DHT22;27211;51.220;5.308;2022-10-16T15:09:50;21.80;99.90
41471;DHT22;27211;51.220;5.308;2022-10-16T15:12:16;21.80;99.90
41471;DHT22;27211;51.220;5.308;2022-10-16T15:14:48;21.80;99.90
41471;DHT22;27211;51.220;5.308;2022-10-16T15:17:17;21.90;99.90
41471;DHT22;27211;51.220;5.308;2022-10-16T15:19:43;21.50;99.90
41471;DHT22;27211;51.220;5.308;2022-10-16T15:22:11;21.30;99.90
41471;DHT22;27211;51.220;5.308;2022-10-16T15:24:36;21.10;99.90
41471;DHT22;27211;51.220;5.308;2022-10-16T15:27:02;20.90;99.90
41471;DHT22;27211;51.220;5.308;2022-10-16T15:29:28;20.70;99.90
41471;DHT22;27211;51.220;5.308;2022-10-16T15:31:54;20.50;99.90
41471;DHT22;27211;51.220;5.308;2022-10-16T15:34:19;20.30;99.90
41471;DHT22;27211;51.220;5.308;2022-10-16T15:36:48;20.20;99.90
41471;DHT22;27211;51.220;5.308;2022-10-16T15:39:17;20.30;99.90
41471;DHT22;27211;51.220;5.308;2022-10-16T15:41:45;20.20;99.90
41471;DHT22;27211;51.220;5.308;2022-10-16T15:44:17;20.40;99.90
41471;DHT22;27211;51.220;5.308;2022-10-16T15:46:43;20.70;99.90
41471;DHT22;27211;51.220;5.308;2022-10-16T15:49:09;20.80;99.90
41471;DHT22;27211;51.220;5.308;2022-10-16T15:51:39;20.60;99.90
41471;DHT22;27211;51.220;5.308;2022-10-16T15:54:05;20.50;99.90
41471;DHT22;27211;51.220;5.308;2022-10-16T15:56:31;20.20;99.90
41471;DHT22;27211;51.220;5.308;2022-10-16T15:58:59;19.90;99.90
41471;DHT22;27211;51.220;5.308;2022-10-16T16:01:26;19.80;99.90
41471;DHT22;27211;51.220;5.308;2022-10-16T16:03:58;19.90;99.90
41471;DHT22;27211;51.220;5.308;2022-10-16T16:06:24;20.10;99.90
41471;DHT22;27211;51.220;5.308;2022-10-16T16:08:50;20.10;99.90
41471;DHT22;27211;51.220;5.308;2022-10-16T16:11:19;20.10;99.90
41471;DHT22;27211;51.220;5.308;2022-10-16T16:13:45;19.90;99.90
41471;DHT22;27211;51.220;5.308;2022-10-16T16:16:15;19.70;99.90
41471;DHT22;27211;51.220;5.308;2022-10-16T16:18:44;19.50;99.90
41471;DHT22;27211;51.220;5.308;2022-10-16T16:21:12;19.50;99.90
41471;DHT22;27211;51.220;5.308;2022-10-16T16:23:38;19.40;99.90
41471;DHT22;27211;51.220;5.308;2022-10-16T16:26:07;19.40;99.90
41471;DHT22;27211;51.220;5.308;2022-10-16T16:28:33;19.40;99.90
41471;DHT22;27211;51.220;5.308;2022-10-16T16:31:05;19.50;99.90
41471;DHT22;27211;51.220;5.308;2022-10-16T16:33:31;19.60;99.90
41471;DHT22;27211;51.220;5.308;2022-10-16T16:36:02;19.40;99.90
41471;DHT22;27211;51.220;5.308;2022-10-16T16:38:29;19.30;99.90
41471;DHT22;27211;51.220;5.308;2022-10-16T16:40:59;19.00;99.90
41471;DHT22;27211;51.220;5.308;2022-10-16T16:43:29;19.00;99.90
41471;DHT22;27211;51.220;5.308;2022-10-16T16:45:55;18.90;99.90
41471;DHT22;27211;51.220;5.308;2022-10-16T16:48:21;19.00;99.90
41471;DHT22;27211;51.220;5.308;2022-10-16T16:50:47;18.90;99.90
41471;DHT22;27211;51.220;5.308;2022-10-16T16:53:13;18.70;99.90
41471;DHT22;27211;51.220;5.308;2022-10-16T16:55:39;18.70;99.90
41471;DHT22;27211;51.220;5.308;2022-10-16T16:58:05;18.70;99.90
41471;DHT22;27211;51.220;5.308;2022-10-16T17:00:31;18.70;99.90
41471;DHT22;27211;51.220;5.308;2022-10-16T17:02:57;18.70;99.90
41471;DHT22;27211;51.220;5.308;2022-10-16T17:05:23;18.50;99.90
41471;DHT22;27211;51.220;5.308;2022-10-16T17:07:49;18.50;99.90
41471;DHT22;27211;51.220;5.308;2022-10-16T17:10:15;18.50;99.90
41471;DHT22;27211;51.220;5.308;2022-10-16T17:12:41;18.40;99.90
41471;DHT22;27211;51.220;5.308;2022-10-16T17:15:07;18.40;99.90
41471;DHT22;27211;51.220;5.308;2022-10-16T17:17:33;18.20;99.90
41471;DHT22;27211;51.220;5.308;2022-10-16T17:20:02;18.30;99.90
41471;DHT22;27211;51.220;5.308;2022-10-16T17:22:28;18.30;99.90
41471;DHT22;27211;51.220;5.308;2022-10-16T17:24:54;18.30;99.90
41471;DHT22;27211;51.220;5.308;2022-10-16T17:27:20;18.30;99.90